createdAt,value
2023-05-20T00:00:04.544Z,15.74
2023-05-20T00:01:06.285Z,15.73
2023-05-20T00:02:08.034Z,15.71
2023-05-20T00:03:09.820Z,15.65
2023-05-20T00:04:11.980Z,15.63
2023-05-20T00:05:14.054Z,15.65
2023-05-20T00:06:15.920Z,15.59
2023-05-20T00:07:20.294Z,15.56
2023-05-20T00:08:22.051Z,15.49
2023-05-20T00:09:23.786Z,15.54
2023-05-20T00:10:25.844Z,15.40
2023-05-20T00:11:27.717Z,15.39
2023-05-20T00:12:29.493Z,15.35
2023-05-20T00:13:31.352Z,15.34
2023-05-20T00:14:33.127Z,15.36
2023-05-20T00:15:36.601Z,15.33
2023-05-20T00:16:38.720Z,15.39
2023-05-20T00:17:40.649Z,15.42
2023-05-20T00:18:42.410Z,15.27
2023-05-20T00:19:44.177Z,15.25
2023-05-20T00:20:46.040Z,15.15
2023-05-20T00:21:47.882Z,15.11
2023-05-20T00:22:49.621Z,15.17
2023-05-20T00:23:52.049Z,15.21
2023-05-20T00:24:53.785Z,15.20
2023-05-20T00:25:56.619Z,15.22
2023-05-20T00:26:59.178Z,15.22
2023-05-20T00:28:01.101Z,15.25
2023-05-20T00:29:02.929Z,15.26
2023-05-20T00:30:05.061Z,15.25
2023-05-20T00:31:06.893Z,15.24
2023-05-20T00:32:08.688Z,15.17
2023-05-20T00:33:10.592Z,15.10
2023-05-20T00:34:12.464Z,15.08
2023-05-20T00:35:14.304Z,14.93
2023-05-20T00:36:16.074Z,14.95
2023-05-20T00:37:17.912Z,14.93
2023-05-20T00:38:19.657Z,14.89
2023-05-20T00:39:21.399Z,14.91
2023-05-20T00:40:23.741Z,14.95
2023-05-20T00:41:25.517Z,14.93
2023-05-20T00:42:28.952Z,14.87
2023-05-20T00:43:30.826Z,14.80
2023-05-20T00:44:32.656Z,14.88
2023-05-20T00:45:34.835Z,14.91
2023-05-20T00:46:37.269Z,14.79
2023-05-20T00:47:39.517Z,14.82
2023-05-20T00:48:43.930Z,14.81
2023-05-20T00:49:48.804Z,14.84
2023-05-20T00:50:52.256Z,14.72
2023-05-20T00:51:54.089Z,14.59
2023-05-20T00:52:55.889Z,14.66
2023-05-20T00:53:58.453Z,14.68
2023-05-20T00:55:00.385Z,14.66
2023-05-20T00:56:03.061Z,14.63
2023-05-20T00:57:07.132Z,14.73
2023-05-20T00:58:10.058Z,14.80
2023-05-20T00:59:12.431Z,14.84
2023-05-20T01:00:14.586Z,14.84
2023-05-20T01:01:16.390Z,14.88
2023-05-20T01:02:18.287Z,14.91
2023-05-20T01:03:20.177Z,14.86
2023-05-20T01:04:21.955Z,14.85
2023-05-20T01:05:23.734Z,14.86
2023-05-20T01:06:26.161Z,14.88
2023-05-20T01:07:27.999Z,14.83
2023-05-20T01:08:29.933Z,14.81
2023-05-20T01:09:32.513Z,14.86
2023-05-20T01:10:36.186Z,14.88
2023-05-20T01:11:48.735Z,14.87
2023-05-20T01:12:54.485Z,14.90
2023-05-20T01:14:01.069Z,14.90
2023-05-20T01:15:09.337Z,14.87
2023-05-20T01:16:12.109Z,14.84
2023-05-20T01:17:18.063Z,14.85
2023-05-20T01:18:20.855Z,14.85
2023-05-20T01:19:35.570Z,14.84
2023-05-20T01:20:39.529Z,14.77
2023-05-20T01:21:43.658Z,14.81
2023-05-20T01:22:49.124Z,14.83
2023-05-20T01:23:51.317Z,14.77
2023-05-20T01:24:57.239Z,14.82
2023-05-20T01:25:58.993Z,14.82
2023-05-20T01:27:00.719Z,14.80
2023-05-20T01:28:02.558Z,14.79
2023-05-20T01:29:04.992Z,14.79
2023-05-20T01:30:07.725Z,14.75
2023-05-20T01:31:21.012Z,14.74
2023-05-20T01:32:32.867Z,14.73
2023-05-20T01:33:37.700Z,14.70
2023-05-20T01:34:41.778Z,14.68
2023-05-20T01:35:43.857Z,14.66
2023-05-20T01:36:47.175Z,14.60
2023-05-20T01:37:50.763Z,14.62
2023-05-20T01:38:54.364Z,14.62
2023-05-20T01:39:57.126Z,14.59
2023-05-20T01:41:01.692Z,14.58
2023-05-20T01:42:05.126Z,14.50
2023-05-20T01:43:07.525Z,14.50
2023-05-20T01:44:10.061Z,14.48
2023-05-20T01:45:12.628Z,14.43
2023-05-20T01:46:15.754Z,14.44
2023-05-20T01:47:17.650Z,14.41
2023-05-20T01:48:19.393Z,14.41
2023-05-20T01:49:21.311Z,14.38
2023-05-20T01:50:23.125Z,14.40
2023-05-20T01:51:24.895Z,14.36
2023-05-20T01:52:26.728Z,14.35
2023-05-20T01:53:28.678Z,14.33
2023-05-20T01:54:30.540Z,14.31
2023-05-20T01:55:32.500Z,14.28
2023-05-20T01:56:34.758Z,14.22
2023-05-20T01:57:36.580Z,14.20
2023-05-20T01:58:38.333Z,14.25
2023-05-20T01:59:40.172Z,14.23
2023-05-20T02:00:41.992Z,14.18
2023-05-20T02:01:43.903Z,14.19
2023-05-20T02:02:45.828Z,14.19
2023-05-20T02:03:47.690Z,14.18
2023-05-20T02:04:51.650Z,14.09
2023-05-20T02:05:53.464Z,14.11
2023-05-20T02:06:55.977Z,14.07
2023-05-20T02:07:57.874Z,14.08
2023-05-20T02:08:59.624Z,14.06
2023-05-20T02:10:01.528Z,14.02
2023-05-20T02:11:03.256Z,14.01
2023-05-20T02:12:05.514Z,14.00
2023-05-20T02:13:07.265Z,14.02
2023-05-20T02:14:09.028Z,14.02
2023-05-20T02:15:10.957Z,14.02
2023-05-20T02:16:12.761Z,14.01
2023-05-20T02:17:16.622Z,13.99
2023-05-20T02:18:18.979Z,13.97
2023-05-20T02:19:23.949Z,13.94
2023-05-20T02:20:25.904Z,13.93
2023-05-20T02:21:27.669Z,13.92
2023-05-20T02:22:29.472Z,13.93
2023-05-20T02:23:34.683Z,13.94
2023-05-20T02:24:36.529Z,13.96
2023-05-20T02:25:38.269Z,13.93
2023-05-20T02:26:40.024Z,13.96
2023-05-20T02:27:41.816Z,13.96
2023-05-20T02:28:46.925Z,13.90
2023-05-20T02:29:48.697Z,13.87
2023-05-20T02:30:51.833Z,13.87
2023-05-20T02:31:53.566Z,13.89
2023-05-20T02:32:55.797Z,13.91
2023-05-20T02:33:57.644Z,13.88
2023-05-20T02:34:59.401Z,13.89
2023-05-20T02:36:01.145Z,13.88
2023-05-20T02:37:02.945Z,13.92
2023-05-20T02:38:04.701Z,13.90
2023-05-20T02:39:06.424Z,13.84
2023-05-20T02:40:09.505Z,13.75
2023-05-20T02:41:11.466Z,13.81
2023-05-20T02:42:13.371Z,13.81
2023-05-20T02:43:15.187Z,13.79
2023-05-20T02:44:17.074Z,13.74
2023-05-20T02:45:18.881Z,13.71
2023-05-20T02:46:20.996Z,13.70
2023-05-20T02:47:22.844Z,13.72
2023-05-20T02:48:24.861Z,13.75
2023-05-20T02:49:26.690Z,13.73
2023-05-20T02:50:28.762Z,13.79
2023-05-20T02:51:32.140Z,13.80
2023-05-20T02:52:34.233Z,13.75
2023-05-20T02:53:36.000Z,13.78
2023-05-20T02:54:37.734Z,13.79
2023-05-20T02:55:42.047Z,13.77
2023-05-20T02:56:43.823Z,13.80
2023-05-20T02:57:45.562Z,13.75
2023-05-20T02:58:48.047Z,13.68
2023-05-20T02:59:50.030Z,13.67
2023-05-20T03:00:52.481Z,13.68
2023-05-20T03:01:54.223Z,13.67
2023-05-20T03:02:56.261Z,13.65
2023-05-20T03:03:58.016Z,13.66
2023-05-20T03:05:00.061Z,13.69
2023-05-20T03:06:01.834Z,13.66
2023-05-20T03:07:03.562Z,13.66
2023-05-20T03:08:10.084Z,13.61
2023-05-20T03:09:11.928Z,13.58
2023-05-20T03:10:13.705Z,13.58
2023-05-20T03:11:16.161Z,13.53
2023-05-20T03:12:18.118Z,13.50
2023-05-20T03:13:19.885Z,13.58
2023-05-20T03:14:21.660Z,13.56
2023-05-20T03:15:23.446Z,13.61
2023-05-20T03:16:25.393Z,13.67
2023-05-20T03:17:27.340Z,13.71
2023-05-20T03:18:29.708Z,13.72
2023-05-20T03:19:31.788Z,13.76
2023-05-20T03:20:33.544Z,13.74
2023-05-20T03:21:35.328Z,13.78
2023-05-20T03:22:37.070Z,13.82
2023-05-20T03:23:38.810Z,13.84
2023-05-20T03:24:40.995Z,13.89
2023-05-20T03:25:42.797Z,13.90
2023-05-20T03:26:46.548Z,13.88
2023-05-20T03:27:48.634Z,13.93
2023-05-20T03:28:50.384Z,13.95
2023-05-20T03:29:55.160Z,13.94
2023-05-20T03:30:57.000Z,13.98
2023-05-20T03:31:58.779Z,13.97
2023-05-20T03:33:00.560Z,13.91
2023-05-20T03:34:02.351Z,13.90
2023-05-20T03:35:04.366Z,13.87
2023-05-20T03:36:06.769Z,13.90
2023-05-20T03:37:08.535Z,13.89
2023-05-20T03:38:10.283Z,13.83
2023-05-20T03:39:12.368Z,13.77
2023-05-20T03:40:14.352Z,13.78
2023-05-20T03:41:16.204Z,13.69
2023-05-20T03:42:17.988Z,13.70
2023-05-20T03:43:19.716Z,13.74
2023-05-20T03:44:21.561Z,13.77
2023-05-20T03:45:23.488Z,13.74
2023-05-20T03:46:25.243Z,13.78
2023-05-20T03:47:27.949Z,13.74
2023-05-20T03:48:29.749Z,13.79
2023-05-20T03:49:31.575Z,13.83
2023-05-20T03:50:33.514Z,13.78
2023-05-20T03:51:35.250Z,13.78
2023-05-20T03:52:37.334Z,13.73
2023-05-20T03:53:39.072Z,13.78
2023-05-20T03:54:40.804Z,13.79
2023-05-20T03:55:42.608Z,13.83
2023-05-20T03:56:47.077Z,13.83
2023-05-20T03:57:48.992Z,13.84
2023-05-20T03:58:51.631Z,13.86
2023-05-20T03:59:53.494Z,13.99
2023-05-20T04:00:58.623Z,14.06
2023-05-20T04:02:00.467Z,14.10
2023-05-20T04:03:02.364Z,14.06
2023-05-20T04:04:04.493Z,14.08
2023-05-20T04:05:09.037Z,14.12
2023-05-20T04:06:10.869Z,14.10
2023-05-20T04:07:12.665Z,14.10
2023-05-20T04:08:14.472Z,14.14
2023-05-20T04:09:16.227Z,14.17
2023-05-20T04:10:20.032Z,14.20
2023-05-20T04:11:21.811Z,14.27
2023-05-20T04:12:26.168Z,14.36
2023-05-20T04:13:28.091Z,14.40
2023-05-20T04:14:29.998Z,14.28
2023-05-20T04:15:36.699Z,14.58
2023-05-20T04:16:39.003Z,14.64
2023-05-20T04:17:41.159Z,14.70
2023-05-20T04:18:48.645Z,14.71
2023-05-20T04:19:50.428Z,14.75
2023-05-20T04:20:56.450Z,14.84
2023-05-20T04:21:58.220Z,14.94
2023-05-20T04:23:00.073Z,14.99
2023-05-20T04:24:02.011Z,15.18
2023-05-20T04:25:05.402Z,15.27
2023-05-20T04:26:07.287Z,15.35
2023-05-20T04:27:09.597Z,15.45
2023-05-20T04:28:14.282Z,15.59
2023-05-20T04:29:16.205Z,15.74
2023-05-20T04:30:18.699Z,15.92
2023-05-20T04:31:21.422Z,16.08
2023-05-20T04:32:23.846Z,16.28
2023-05-20T04:33:26.745Z,16.47
2023-05-20T04:34:35.319Z,16.66
2023-05-20T04:35:38.287Z,16.95
2023-05-20T04:36:40.587Z,17.16
2023-05-20T04:37:48.244Z,17.32
2023-05-20T04:38:50.086Z,17.47
2023-05-20T04:39:52.677Z,17.65
2023-05-20T04:40:54.463Z,17.78
2023-05-20T04:41:56.301Z,17.94
2023-05-20T04:43:00.180Z,18.08
2023-05-20T04:44:02.076Z,18.23
2023-05-20T04:45:05.936Z,18.37
2023-05-20T04:46:08.071Z,18.55
2023-05-20T04:47:09.902Z,18.70
2023-05-20T04:48:11.666Z,18.87
2023-05-20T04:49:13.424Z,19.11
2023-05-20T04:50:15.735Z,19.30
2023-05-20T04:51:18.001Z,19.41
2023-05-20T04:52:19.772Z,19.49
2023-05-20T04:53:24.606Z,19.57
2023-05-20T04:54:26.580Z,19.64
2023-05-20T04:55:28.867Z,19.77
2023-05-20T04:56:30.650Z,19.82
2023-05-20T04:57:35.373Z,19.93
2023-05-20T04:58:38.097Z,20.09
2023-05-20T04:59:39.841Z,20.24
2023-05-20T05:00:43.162Z,20.29
2023-05-20T05:01:45.133Z,20.41
2023-05-20T05:02:47.843Z,20.57
2023-05-20T05:03:49.594Z,20.76
2023-05-20T05:04:51.354Z,20.94
2023-05-20T05:05:57.514Z,21.12
2023-05-20T05:06:59.245Z,21.30
2023-05-20T05:08:01.096Z,21.41
2023-05-20T05:09:02.961Z,21.42
2023-05-20T05:10:04.965Z,21.30
2023-05-20T05:11:07.140Z,21.18
2023-05-20T05:12:08.915Z,20.95
2023-05-20T05:13:10.700Z,21.00
2023-05-20T05:14:12.455Z,21.00
2023-05-20T05:15:14.212Z,21.37
2023-05-20T05:16:16.051Z,21.55
2023-05-20T05:17:17.860Z,21.66
2023-05-20T05:18:19.674Z,21.75
2023-05-20T05:19:21.464Z,21.96
2023-05-20T05:20:23.625Z,22.11
2023-05-20T05:21:25.400Z,22.22
2023-05-20T05:22:27.145Z,22.33
2023-05-20T05:23:29.017Z,22.49
2023-05-20T05:24:30.828Z,22.75
2023-05-20T05:25:33.350Z,22.92
2023-05-20T05:26:35.243Z,22.99
2023-05-20T05:27:37.378Z,23.12
2023-05-20T05:28:43.487Z,23.27
2023-05-20T05:29:45.263Z,23.05
2023-05-20T05:30:47.017Z,23.25
2023-05-20T05:31:48.859Z,23.25
2023-05-20T05:32:51.136Z,23.22
2023-05-20T05:33:52.931Z,23.22
2023-05-20T05:34:54.738Z,23.27
2023-05-20T05:35:59.339Z,23.50
2023-05-20T05:37:01.428Z,23.73
2023-05-20T05:38:03.287Z,23.97
2023-05-20T05:39:05.059Z,24.20
2023-05-20T05:40:09.354Z,24.30
2023-05-20T05:41:11.276Z,24.48
2023-05-20T05:42:13.049Z,24.65
2023-05-20T05:43:14.779Z,24.79
2023-05-20T05:44:16.674Z,24.95
2023-05-20T05:45:18.470Z,25.17
2023-05-20T05:46:20.279Z,25.39
2023-05-20T05:47:22.062Z,25.51
2023-05-20T05:48:23.892Z,25.62
2023-05-20T05:49:25.632Z,25.74
2023-05-20T05:50:27.376Z,25.92
2023-05-20T05:51:29.406Z,25.99
2023-05-20T05:52:31.178Z,26.11
2023-05-20T05:53:32.975Z,26.26
2023-05-20T05:54:34.867Z,26.34
2023-05-20T05:55:36.711Z,26.43
2023-05-20T05:56:38.456Z,26.59
2023-05-20T05:57:40.209Z,26.76
2023-05-20T06:48:08.031Z,31.39
2023-05-20T06:49:09.778Z,31.44
2023-05-20T06:50:12.218Z,31.54
2023-05-20T06:51:14.244Z,31.64
2023-05-20T06:52:16.017Z,31.77
2023-05-20T06:53:17.758Z,31.86
2023-05-20T06:54:19.538Z,31.98
2023-05-20T06:55:21.349Z,32.06
2023-05-20T06:56:23.109Z,32.07
2023-05-20T06:57:24.890Z,32.16
2023-05-20T06:58:26.797Z,32.19
2023-05-20T06:59:28.568Z,32.33
2023-05-20T07:00:30.314Z,32.47
2023-05-20T07:01:32.100Z,32.57
2023-05-20T07:02:39.778Z,32.47
2023-05-20T07:03:42.987Z,32.56
2023-05-20T07:04:44.808Z,32.55
2023-05-20T07:05:46.632Z,32.63
2023-05-20T07:06:48.392Z,32.71
2023-05-20T07:07:50.671Z,32.53
2023-05-20T07:08:52.490Z,32.41
2023-05-20T07:09:55.564Z,32.30
2023-05-20T07:10:57.826Z,32.13
2023-05-20T07:11:59.608Z,31.99
2023-05-20T07:13:01.352Z,31.82
2023-05-20T07:14:03.111Z,31.79
2023-05-20T07:15:05.185Z,31.68
2023-05-20T07:16:07.046Z,31.74
2023-05-20T07:17:08.827Z,31.81
2023-05-20T07:18:11.751Z,31.76
2023-05-20T07:19:13.717Z,31.72
2023-05-20T07:20:15.932Z,31.67
2023-05-20T07:21:18.122Z,31.52
2023-05-20T07:22:19.870Z,31.47
2023-05-20T07:23:21.696Z,31.29
2023-05-20T07:24:23.425Z,30.86
2023-05-20T07:25:25.148Z,30.39
2023-05-20T07:26:27.040Z,30.38
2023-05-20T07:27:28.929Z,30.27
2023-05-20T07:28:30.998Z,30.16
2023-05-20T07:29:32.792Z,30.36
2023-05-20T07:30:34.602Z,30.36
2023-05-20T07:31:36.518Z,30.03
2023-05-20T07:32:38.388Z,29.81
2023-05-20T07:33:40.236Z,29.48
2023-05-20T07:34:41.999Z,29.38
2023-05-20T07:35:44.878Z,29.50
2023-05-20T07:36:46.696Z,29.28
2023-05-20T07:37:48.528Z,28.79
2023-05-20T07:39:01.491Z,28.76
2023-05-20T07:40:05.908Z,28.97
2023-05-20T07:41:07.724Z,29.03
2023-05-20T07:42:09.466Z,28.73
2023-05-20T07:43:11.298Z,28.42
2023-05-20T07:44:13.380Z,28.28
2023-05-20T07:45:15.195Z,28.21
2023-05-20T07:46:18.727Z,28.52
2023-05-20T07:47:21.840Z,28.80
2023-05-20T07:48:23.718Z,28.90
2023-05-20T07:49:25.465Z,29.16
2023-05-20T07:50:27.242Z,29.29
2023-05-20T07:51:29.008Z,29.32
2023-05-20T07:52:33.687Z,29.56
2023-05-20T07:53:42.854Z,29.39
2023-05-20T07:54:44.638Z,29.20
2023-05-20T07:55:46.511Z,29.19
2023-05-20T07:56:48.293Z,29.23
2023-05-20T07:57:50.172Z,29.31
2023-05-20T07:58:53.997Z,29.29
2023-05-20T07:59:55.784Z,29.30
2023-05-20T08:00:57.889Z,29.10
2023-05-20T08:01:59.775Z,28.81
2023-05-20T08:03:01.773Z,28.60
2023-05-20T08:04:04.146Z,28.24
2023-05-20T08:05:06.629Z,27.87
2023-05-20T08:06:11.312Z,27.99
2023-05-20T08:07:13.078Z,28.04
2023-05-20T08:08:14.865Z,28.16
2023-05-20T08:09:16.722Z,27.98
2023-05-20T08:10:18.558Z,27.61
2023-05-20T08:11:21.849Z,27.66
2023-05-20T08:12:23.627Z,27.45
2023-05-20T08:13:25.466Z,26.93
2023-05-20T08:14:27.710Z,26.61
2023-05-20T08:15:29.569Z,26.68
2023-05-20T08:16:31.379Z,26.57
2023-05-20T08:17:33.467Z,26.65
2023-05-20T08:18:38.026Z,26.76
2023-05-20T08:19:39.943Z,26.83
2023-05-20T08:20:42.868Z,27.11
2023-05-20T08:21:45.885Z,27.33
2023-05-20T08:22:47.725Z,27.31
2023-05-20T08:23:49.692Z,27.40
2023-05-20T08:24:51.465Z,27.50
2023-05-20T08:25:53.241Z,27.71
2023-05-20T08:26:55.072Z,27.75
2023-05-20T08:27:56.898Z,27.39
2023-05-20T08:28:58.816Z,27.25
2023-05-20T08:30:01.087Z,27.26
2023-05-20T08:31:03.057Z,27.20
2023-05-20T08:32:05.191Z,26.84
2023-05-20T08:33:07.294Z,26.43
2023-05-20T08:34:09.066Z,26.47
2023-05-20T08:35:11.422Z,26.35
2023-05-20T08:36:13.847Z,26.73
2023-05-20T08:37:16.165Z,26.99
2023-05-20T08:38:17.962Z,27.04
2023-05-20T08:39:19.744Z,27.13
2023-05-20T08:40:22.507Z,27.14
2023-05-20T08:41:25.095Z,27.23
2023-05-20T08:42:30.673Z,27.37
2023-05-20T08:43:32.856Z,27.29
2023-05-20T08:44:36.153Z,27.06
2023-05-20T08:45:39.185Z,26.90
2023-05-20T08:46:42.089Z,26.88
2023-05-20T08:47:44.548Z,26.62
2023-05-20T08:48:46.373Z,26.43
2023-05-20T08:49:49.472Z,26.28
2023-05-20T08:50:52.522Z,26.44
2023-05-20T08:51:54.308Z,26.66
2023-05-20T08:52:56.635Z,26.70
2023-05-20T08:54:00.214Z,26.78
2023-05-20T08:55:03.014Z,26.87
2023-05-20T08:56:05.262Z,27.06
2023-05-20T08:57:07.008Z,26.89
2023-05-20T08:58:10.000Z,26.72
2023-05-20T08:59:12.190Z,26.66
2023-05-20T09:00:17.251Z,26.29
2023-05-20T09:01:19.754Z,26.25
2023-05-20T09:02:21.780Z,26.33
2023-05-20T09:03:24.510Z,26.58
2023-05-20T09:04:26.707Z,26.85
2023-05-20T09:05:29.064Z,26.94
2023-05-20T09:06:32.574Z,27.01
2023-05-20T09:07:34.345Z,26.83
2023-05-20T09:08:36.779Z,26.93
2023-05-20T09:09:38.518Z,27.09
2023-05-20T09:10:41.419Z,27.26
2023-05-20T09:11:43.698Z,27.51
2023-05-20T09:12:45.777Z,27.54
2023-05-20T09:13:47.522Z,27.28
2023-05-20T09:15:39.334Z,27.28
2023-05-20T09:16:41.701Z,27.74
2023-05-20T09:17:43.495Z,27.81
2023-05-20T09:18:46.824Z,27.93
2023-05-20T09:19:51.275Z,27.68
2023-05-20T09:20:53.156Z,27.36
2023-05-20T09:21:55.422Z,27.32
2023-05-20T09:23:08.152Z,27.32
2023-05-20T09:24:09.896Z,26.92
2023-05-20T09:25:13.393Z,26.75
2023-05-20T09:26:15.137Z,26.21
2023-05-20T09:27:17.195Z,26.05
2023-05-20T09:28:25.618Z,26.07
2023-05-20T09:29:27.406Z,25.74
2023-05-20T09:30:29.179Z,25.48
2023-05-20T09:31:33.983Z,25.52
2023-05-20T09:32:35.984Z,25.56
2023-05-20T09:33:38.322Z,25.63
2023-05-20T09:34:42.060Z,25.82
2023-05-20T09:35:44.455Z,25.82
2023-05-20T09:36:50.775Z,25.79
2023-05-20T09:37:57.093Z,25.77
2023-05-20T09:39:05.860Z,25.86
2023-05-20T09:40:10.161Z,25.74
2023-05-20T09:41:13.927Z,25.51
2023-05-20T09:42:26.615Z,25.23
2023-05-20T09:43:28.764Z,25.09
2023-05-20T09:44:31.750Z,24.95
2023-05-20T09:45:34.061Z,24.89
2023-05-20T09:46:37.237Z,24.89
2023-05-20T09:47:41.192Z,24.95
2023-05-20T09:48:44.304Z,25.05
2023-05-20T09:49:50.362Z,25.27
2023-05-20T09:50:53.150Z,25.58
2023-05-20T09:51:57.287Z,25.81
2023-05-20T09:53:04.358Z,26.08
2023-05-20T09:54:08.878Z,26.32
2023-05-20T09:55:11.062Z,26.50
2023-05-20T09:56:13.174Z,26.56
2023-05-20T09:57:14.972Z,26.58
2023-05-20T09:58:19.139Z,26.56
2023-05-20T09:59:22.697Z,26.77
2023-05-20T10:00:24.427Z,26.71
2023-05-20T10:01:26.539Z,26.75
2023-05-20T10:02:29.611Z,26.95
2023-05-20T10:03:33.736Z,26.89
2023-05-20T10:04:38.406Z,26.49
2023-05-20T10:05:57.267Z,26.25
2023-05-20T10:07:20.951Z,26.16
2023-05-20T10:08:40.385Z,26.23
2023-05-20T10:09:48.283Z,26.44
2023-05-20T10:10:56.582Z,26.62
2023-05-20T10:12:12.673Z,26.89
2023-05-20T10:13:42.191Z,26.86
2023-05-20T10:14:59.845Z,26.69
2023-05-20T10:16:20.922Z,26.63
2023-05-20T10:17:28.894Z,26.60
2023-05-20T10:18:49.283Z,26.72
2023-05-20T10:19:57.690Z,26.29
2023-05-20T10:20:59.749Z,26.05
2023-05-20T10:22:09.463Z,25.83
2023-05-20T10:23:30.749Z,25.32
2023-05-20T10:24:38.314Z,24.90
2023-05-20T10:25:51.385Z,24.96
2023-05-20T10:26:55.762Z,24.96
2023-05-20T10:28:12.033Z,24.82
2023-05-20T10:29:22.722Z,24.75
2023-05-20T10:30:24.586Z,24.96
2023-05-20T10:31:26.581Z,25.07
2023-05-20T10:32:33.342Z,24.92
2023-05-20T10:33:43.005Z,24.97
2023-05-20T10:34:48.136Z,25.03
2023-05-20T10:35:53.548Z,24.99
2023-05-20T10:36:55.209Z,25.15
2023-05-20T10:38:11.546Z,25.06
2023-05-20T10:39:17.601Z,25.12
2023-05-20T10:40:20.913Z,25.24
2023-05-20T10:41:25.108Z,25.05
2023-05-20T10:42:30.554Z,25.00
2023-05-20T10:43:32.318Z,25.04
2023-05-20T10:44:43.927Z,25.16
2023-05-20T10:45:57.384Z,25.27
2023-05-20T10:47:21.100Z,25.51
2023-05-20T10:48:26.267Z,25.57
2023-05-20T10:49:35.282Z,25.66
2023-05-20T10:50:38.819Z,25.65
2023-05-20T10:51:42.119Z,25.66
2023-05-20T10:52:44.001Z,25.73
2023-05-20T10:53:46.969Z,25.64
2023-05-20T10:54:56.669Z,25.50
2023-05-20T10:55:58.440Z,25.42
2023-05-20T10:57:00.443Z,25.14
2023-05-20T10:58:02.395Z,25.05
2023-05-20T10:59:04.833Z,24.83
2023-05-20T11:00:10.883Z,24.78
2023-05-20T11:01:14.273Z,24.62
2023-05-20T11:02:17.205Z,24.41
2023-05-20T11:03:22.114Z,24.31
2023-05-20T11:04:24.312Z,24.14
2023-05-20T11:05:27.157Z,24.03
2023-05-20T11:06:29.336Z,23.68
2023-05-20T11:07:32.624Z,23.60
2023-05-20T11:08:34.364Z,23.41
2023-05-20T11:09:36.474Z,23.30
2023-05-20T11:10:38.360Z,23.11
2023-05-20T11:11:41.277Z,22.98
2023-05-20T11:12:43.103Z,23.07
2023-05-20T11:13:46.092Z,23.12
2023-05-20T11:14:49.791Z,23.12
2023-05-20T11:15:51.666Z,23.12
2023-05-20T11:16:56.448Z,23.04
2023-05-20T11:18:02.733Z,22.91
2023-05-20T11:19:04.717Z,22.79
2023-05-20T11:20:07.269Z,22.81
2023-05-20T11:21:10.025Z,22.68
2023-05-20T11:22:12.123Z,22.73
2023-05-20T11:23:15.570Z,22.73
2023-05-20T11:24:28.375Z,22.55
2023-05-20T11:25:30.634Z,22.43
2023-05-20T11:26:33.476Z,22.44
2023-05-20T11:27:35.244Z,22.38
2023-05-20T11:28:37.064Z,22.30
2023-05-20T11:29:40.784Z,22.36
2023-05-20T11:30:43.855Z,22.30
2023-05-20T11:31:46.738Z,22.26
2023-05-20T11:33:01.692Z,22.19
2023-05-20T11:34:04.433Z,22.16
2023-05-20T11:35:07.540Z,21.98
2023-05-20T11:36:23.896Z,22.07
2023-05-20T11:37:29.636Z,22.16
2023-05-20T11:38:31.905Z,22.15
2023-05-20T11:39:34.112Z,22.06
2023-05-20T11:40:49.964Z,22.09
2023-05-20T11:41:52.736Z,22.13
2023-05-20T11:42:56.353Z,22.13
2023-05-20T11:43:59.584Z,22.04
2023-05-20T11:45:01.674Z,22.02
2023-05-20T11:46:05.352Z,22.04
2023-05-20T11:47:09.840Z,22.12
2023-05-20T11:48:12.820Z,22.13
2023-05-20T11:49:15.797Z,22.17
2023-05-20T11:50:18.926Z,22.10
2023-05-20T11:51:30.305Z,22.16
2023-05-20T11:52:34.065Z,22.13
2023-05-20T11:53:41.330Z,22.17
2023-05-20T11:54:43.066Z,22.14
2023-05-20T11:55:58.384Z,22.10
2023-05-20T11:57:00.157Z,22.11
2023-05-20T11:58:03.780Z,22.12
2023-05-20T11:59:06.939Z,22.13
2023-05-20T12:00:10.970Z,22.10
2023-05-20T12:01:22.447Z,22.09
2023-05-20T12:02:24.820Z,22.20
2023-05-20T12:03:27.600Z,22.26
2023-05-20T12:04:29.594Z,22.34
2023-05-20T12:05:31.579Z,22.34
2023-05-20T12:06:36.636Z,22.39
2023-05-20T12:07:38.646Z,22.37
2023-05-20T12:08:40.620Z,22.41
2023-05-20T12:09:42.372Z,22.44
2023-05-20T12:10:45.239Z,22.49
2023-05-20T12:11:47.033Z,22.52
2023-05-20T12:12:48.920Z,22.52
2023-05-20T12:13:50.699Z,22.19
2023-05-20T12:14:52.418Z,22.09
2023-05-20T12:15:54.168Z,22.07
2023-05-20T12:16:55.911Z,22.13
2023-05-20T12:17:57.753Z,22.17
2023-05-20T12:18:59.732Z,22.12
2023-05-20T12:20:01.628Z,22.18
2023-05-20T12:21:03.506Z,22.20
2023-05-20T12:22:05.449Z,22.11
2023-05-20T12:23:07.270Z,22.21
2023-05-20T12:24:09.441Z,22.26
2023-05-20T12:25:15.765Z,22.42
2023-05-20T12:26:17.544Z,22.40
2023-05-20T12:27:19.302Z,22.42
2023-05-20T12:28:21.820Z,22.51
2023-05-20T12:29:24.016Z,22.46
2023-05-20T12:30:25.805Z,22.37
2023-05-20T12:31:27.607Z,22.42
2023-05-20T12:32:29.401Z,22.47
2023-05-20T12:33:31.199Z,22.46
2023-05-20T12:34:33.320Z,22.47
2023-05-20T12:35:43.242Z,22.42
2023-05-20T12:36:44.996Z,22.48
2023-05-20T12:37:46.808Z,22.52
2023-05-20T12:38:48.558Z,22.54
2023-05-20T12:39:51.396Z,22.46
2023-05-20T12:40:53.183Z,22.56
2023-05-20T12:41:54.906Z,22.60
2023-05-20T12:42:56.686Z,22.54
2023-05-20T12:43:58.524Z,22.51
2023-05-20T12:45:00.264Z,22.58
2023-05-20T12:46:02.149Z,22.43
2023-05-20T12:47:04.155Z,22.33
2023-05-20T12:48:08.045Z,22.19
2023-05-20T12:49:09.928Z,22.28
2023-05-20T12:50:11.869Z,22.30
2023-05-20T12:51:13.704Z,22.39
2023-05-20T12:52:22.000Z,22.45
2023-05-20T12:53:24.744Z,22.47
2023-05-20T12:54:28.376Z,22.62
2023-05-20T12:55:30.175Z,22.78
2023-05-20T12:56:31.910Z,22.93
2023-05-20T12:57:33.657Z,23.03
2023-05-20T12:58:35.622Z,23.17
2023-05-20T12:59:37.518Z,23.36
2023-05-20T13:00:39.318Z,23.31
2023-05-20T13:01:41.277Z,23.55
2023-05-20T13:02:43.774Z,23.63
2023-05-20T13:03:45.694Z,23.56
2023-05-20T13:04:47.576Z,23.41
2023-05-20T13:05:49.401Z,23.34
2023-05-20T13:06:51.269Z,23.45
2023-05-20T13:07:53.009Z,23.55
2023-05-20T13:08:54.767Z,23.50
2023-05-20T13:09:56.629Z,23.46
2023-05-20T13:10:58.394Z,23.51
2023-05-20T13:12:03.163Z,23.59
2023-05-20T13:13:04.995Z,23.56
2023-05-20T13:14:06.738Z,23.49
2023-05-20T13:15:09.136Z,23.36
2023-05-20T13:16:12.109Z,23.21
2023-05-20T13:17:13.885Z,23.10
2023-05-20T13:18:16.753Z,23.11
2023-05-20T13:19:18.518Z,23.07
2023-05-20T13:20:20.355Z,23.06
2023-05-20T13:21:22.261Z,22.96
2023-05-20T13:22:24.077Z,22.83
2023-05-20T13:23:25.841Z,22.77
2023-05-20T13:24:27.609Z,22.77
2023-05-20T13:25:29.463Z,22.75
2023-05-20T13:26:31.552Z,22.77
2023-05-20T13:27:33.363Z,22.83
2023-05-20T13:28:35.576Z,22.86
2023-05-20T13:29:37.426Z,22.98
2023-05-20T13:30:39.349Z,23.16
2023-05-20T13:31:42.370Z,23.34
2023-05-20T13:32:44.263Z,23.55
2023-05-20T13:33:46.047Z,23.67
2023-05-20T13:34:47.799Z,23.73
2023-05-20T13:35:49.936Z,23.85
2023-05-20T13:36:51.690Z,23.96
2023-05-20T13:37:53.500Z,24.01
2023-05-20T13:38:55.234Z,24.05
2023-05-20T13:39:57.030Z,23.96
2023-05-20T13:40:59.543Z,23.73
2023-05-20T13:42:04.523Z,23.60
2023-05-20T13:43:06.530Z,23.57
2023-05-20T13:44:08.467Z,23.65
2023-05-20T13:45:10.661Z,23.50
2023-05-20T13:46:12.563Z,23.38
2023-05-20T13:47:14.523Z,23.32
2023-05-20T13:48:16.493Z,23.02
2023-05-20T13:49:18.546Z,22.95
2023-05-20T13:50:20.595Z,23.00
2023-05-20T13:51:22.554Z,22.88
2023-05-20T13:52:24.335Z,22.89
2023-05-20T13:53:26.086Z,22.94
2023-05-20T13:54:27.838Z,22.86
2023-05-20T13:55:29.645Z,22.81
2023-05-20T13:56:31.451Z,22.74
2023-05-20T13:57:33.239Z,22.77
2023-05-20T13:58:36.995Z,22.85
2023-05-20T13:59:38.857Z,22.81
2023-05-20T14:00:40.737Z,22.69
2023-05-20T14:01:45.258Z,22.66
2023-05-20T14:02:47.490Z,22.54
2023-05-20T14:03:49.583Z,22.52
2023-05-20T14:04:51.472Z,22.33
2023-05-20T14:05:53.465Z,22.38
2023-05-20T14:06:55.344Z,22.40
2023-05-20T14:07:57.411Z,22.28
2023-05-20T14:08:59.202Z,22.26
2023-05-20T14:10:00.986Z,22.29
2023-05-20T14:11:02.743Z,22.23
2023-05-20T14:12:05.874Z,22.20
2023-05-20T14:13:09.056Z,22.30
2023-05-20T14:14:11.076Z,22.41
2023-05-20T14:15:12.893Z,22.32
2023-05-20T14:16:14.794Z,22.42
2023-05-20T14:17:16.764Z,22.53
2023-05-20T14:18:19.390Z,22.49
2023-05-20T14:19:21.216Z,22.42
2023-05-20T14:20:23.498Z,22.35
2023-05-20T14:21:25.253Z,22.46
2023-05-20T14:22:26.974Z,22.46